sensor_id;sensor_type;location;lat;lon;timestamp;temperature;humidity
15292;DHT22;57357;49.480;11.058;2022-07-23T00:02:05;21.50;99.90
15292;DHT22;57357;49.480;11.058;2022-07-23T00:05:01;21.50;99.90
15292;DHT22;57357;49.480;11.058;2022-07-23T00:07:28;21.50;99.90
15292;DHT22;57357;49.480;11.058;2022-07-23T00:09:56;21.40;99.90
15292;DHT22;57357;49.480;11.058;2022-07-23T00:12:24;21.20;99.90
15292;DHT22;57357;49.480;11.058;2022-07-23T00:18:04;21.10;99.90
15292;DHT22;57357;49.480;11.058;2022-07-23T00:20:31;21.10;99.90
15292;DHT22;57357;49.480;11.058;2022-07-23T00:22:59;21.10;99.90
15292;DHT22;57357;49.480;11.058;2022-07-23T00:25:27;21.10;99.90
15292;DHT22;57357;49.480;11.058;2022-07-23T00:27:56;21.10;99.90
15292;DHT22;57357;49.480;11.058;2022-07-23T00:30:52;21.10;99.90
15292;DHT22;57357;49.480;11.058;2022-07-23T00:36:04;20.80;99.90
15292;DHT22;57357;49.480;11.058;2022-07-23T00:38:32;20.80;99.90
15292;DHT22;57357;49.480;11.058;2022-07-23T00:41:28;20.70;99.90
15292;DHT22;57357;49.480;11.058;2022-07-23T00:43:55;20.60;99.90
15292;DHT22;57357;49.480;11.058;2022-07-23T00:46:23;20.50;99.90
15292;DHT22;57357;49.480;11.058;2022-07-23T00:48:51;20.50;99.90
15292;DHT22;57357;49.480;11.058;2022-07-23T00:54:31;20.40;99.90
15292;DHT22;57357;49.480;11.058;2022-07-23T00:56:58;20.30;99.90
15292;DHT22;57357;49.480;11.058;2022-07-23T00:59:26;20.20;99.90
15292;DHT22;57357;49.480;11.058;2022-07-23T01:01:54;20.10;99.90
15292;DHT22;57357;49.480;11.058;2022-07-23T01:04:22;20.10;99.90
15292;DHT22;57357;49.480;11.058;2022-07-23T01:07:17;20.00;99.90
15292;DHT22;57357;49.480;11.058;2022-07-23T01:12:29;20.00;99.90
15292;DHT22;57357;49.480;11.058;2022-07-23T01:14:58;20.00;99.90
15292;DHT22;57357;49.480;11.058;2022-07-23T01:17:54;20.00;99.90
15292;DHT22;57357;49.480;11.058;2022-07-23T01:20:21;20.00;99.90
15292;DHT22;57357;49.480;11.058;2022-07-23T01:25:33;20.00;99.90
15292;DHT22;57357;49.480;11.058;2022-07-23T01:28:29;20.00;99.90
15292;DHT22;57357;49.480;11.058;2022-07-23T01:30:56;19.90;99.90
15292;DHT22;57357;49.480;11.058;2022-07-23T01:33:24;19.90;99.90
15292;DHT22;57357;49.480;11.058;2022-07-23T01:35:52;19.90;99.90
15292;DHT22;57357;49.480;11.058;2022-07-23T01:38:20;19.90;99.90
15292;DHT22;57357;49.480;11.058;2022-07-23T01:43:59;19.90;99.90
15292;DHT22;57357;49.480;11.058;2022-07-23T01:46:27;19.80;99.90
15292;DHT22;57357;49.480;11.058;2022-07-23T01:48:55;19.80;99.90
15292;DHT22;57357;49.480;11.058;2022-07-23T01:51:51;19.80;99.90
15292;DHT22;57357;49.480;11.058;2022-07-23T01:54:27;19.90;99.90
15292;DHT22;57357;49.480;11.058;2022-07-23T01:56:55;20.00;99.90
15292;DHT22;57357;49.480;11.058;2022-07-23T02:02:35;20.00;99.90
15292;DHT22;57357;49.480;11.058;2022-07-23T02:05:03;20.00;99.90
15292;DHT22;57357;49.480;11.058;2022-07-23T02:07:30;20.00;99.90
15292;DHT22;57357;49.480;11.058;2022-07-23T02:10:00;20.00;99.90
15292;DHT22;57357;49.480;11.058;2022-07-23T02:12:27;20.00;99.90
15292;DHT22;57357;49.480;11.058;2022-07-23T02:15:23;20.00;99.90
15292;DHT22;57357;49.480;11.058;2022-07-23T02:20:36;19.90;99.90
15292;DHT22;57357;49.480;11.058;2022-07-23T02:23:05;19.90;99.90
15292;DHT22;57357;49.480;11.058;2022-07-23T02:26:00;19.90;99.90
15292;DHT22;57357;49.480;11.058;2022-07-23T02:28:28;19.80;99.90
15292;DHT22;57357;49.480;11.058;2022-07-23T02:30:56;19.80;99.90
15292;DHT22;57357;49.480;11.058;2022-07-23T02:33:23;19.80;99.90
15292;DHT22;57357;49.480;11.058;2022-07-23T02:39:03;19.70;99.90
15292;DHT22;57357;49.480;11.058;2022-07-23T02:41:31;19.70;99.90
15292;DHT22;57357;49.480;11.058;2022-07-23T02:43:58;19.70;99.90
15292;DHT22;57357;49.480;11.058;2022-07-23T02:46:40;19.70;99.90
15292;DHT22;57357;49.480;11.058;2022-07-23T02:49:08;19.60;99.90
15292;DHT22;57357;49.480;11.058;2022-07-23T02:51:49;19.60;99.90
15292;DHT22;57357;49.480;11.058;2022-07-23T02:57:15;19.60;99.90
15292;DHT22;57357;49.480;11.058;2022-07-23T02:59:43;19.60;99.90
15292;DHT22;57357;49.480;11.058;2022-07-23T03:02:24;19.60;99.90
15292;DHT22;57357;49.480;11.058;2022-07-23T03:04:52;19.60;99.90
15292;DHT22;57357;49.480;11.058;2022-07-23T03:07:20;19.60;99.90
15292;DHT22;57357;49.480;11.058;2022-07-23T03:10:02;19.60;99.90
15292;DHT22;57357;49.480;11.058;2022-07-23T03:15:28;19.60;99.90
15292;DHT22;57357;49.480;11.058;2022-07-23T03:17:55;19.60;99.90
15292;DHT22;57357;49.480;11.058;2022-07-23T03:20:37;19.60;99.90
15292;DHT22;57357;49.480;11.058;2022-07-23T03:23:05;19.60;99.90
15292;DHT22;57357;49.480;11.058;2022-07-23T03:25:33;19.60;99.90
15292;DHT22;57357;49.480;11.058;2022-07-23T03:28:14;19.60;99.90
15292;DHT22;57357;49.480;11.058;2022-07-23T03:33:40;19.40;99.90
15292;DHT22;57357;49.480;11.058;2022-07-23T03:36:08;19.40;99.90
15292;DHT22;57357;49.480;11.058;2022-07-23T03:38:50;19.30;99.90
15292;DHT22;57357;49.480;11.058;2022-07-23T03:41:18;19.30;99.90
15292;DHT22;57357;49.480;11.058;2022-07-23T03:43:46;19.30;99.90
15292;DHT22;57357;49.480;11.058;2022-07-23T03:46:28;19.30;99.90
15292;DHT22;57357;49.480;11.058;2022-07-23T03:51:44;19.30;99.90
15292;DHT22;57357;49.480;11.058;2022-07-23T03:54:12;19.20;99.90
15292;DHT22;57357;49.480;11.058;2022-07-23T03:56:39;19.10;99.90
15292;DHT22;57357;49.480;11.058;2022-07-23T03:59:07;19.10;99.90
15292;DHT22;57357;49.480;11.058;2022-07-23T04:01:35;19.10;99.90
15292;DHT22;57357;49.480;11.058;2022-07-23T04:04:03;19.10;99.90
15292;DHT22;57357;49.480;11.058;2022-07-23T04:06:31;19.10;99.90
15292;DHT22;57357;49.480;11.058;2022-07-23T04:09:00;19.10;99.90
15292;DHT22;57357;49.480;11.058;2022-07-23T04:11:28;19.10;99.90
15292;DHT22;57357;49.480;11.058;2022-07-23T04:13:56;19.00;99.90
15292;DHT22;57357;49.480;11.058;2022-07-23T04:16:24;19.10;99.90
15292;DHT22;57357;49.480;11.058;2022-07-23T04:18:52;19.10;99.90
15292;DHT22;57357;49.480;11.058;2022-07-23T04:21:19;19.20;99.90
15292;DHT22;57357;49.480;11.058;2022-07-23T04:23:47;19.30;99.90
15292;DHT22;57357;49.480;11.058;2022-07-23T04:26:16;19.30;99.90
15292;DHT22;57357;49.480;11.058;2022-07-23T04:28:44;19.30;99.90
15292;DHT22;57357;49.480;11.058;2022-07-23T04:31:12;19.30;99.90
15292;DHT22;57357;49.480;11.058;2022-07-23T04:33:39;19.30;99.90
15292;DHT22;57357;49.480;11.058;2022-07-23T04:38:37;19.50;99.90
15292;DHT22;57357;49.480;11.058;2022-07-23T04:41:04;19.50;99.90
15292;DHT22;57357;49.480;11.058;2022-07-23T04:43:33;19.50;99.90
15292;DHT22;57357;49.480;11.058;2022-07-23T04:46:01;19.60;99.90
15292;DHT22;57357;49.480;11.058;2022-07-23T04:48:29;19.70;99.90
15292;DHT22;57357;49.480;11.058;2022-07-23T04:50:57;19.80;99.90
15292;DHT22;57357;49.480;11.058;2022-07-23T04:53:25;19.80;99.90
15292;DHT22;57357;49.480;11.058;2022-07-23T04:55:52;19.80;99.90
15292;DHT22;57357;49.480;11.058;2022-07-23T04:58:20;19.90;99.90
15292;DHT22;57357;49.480;11.058;2022-07-23T05:00:50;20.00;99.90
15292;DHT22;57357;49.480;11.058;2022-07-23T05:03:17;20.20;99.90
15292;DHT22;57357;49.480;11.058;2022-07-23T05:05:45;20.30;99.90
15292;DHT22;57357;49.480;11.058;2022-07-23T05:08:13;20.50;99.90
15292;DHT22;57357;49.480;11.058;2022-07-23T05:10:41;20.60;99.90
15292;DHT22;57357;49.480;11.058;2022-07-23T05:13:09;20.60;99.90
15292;DHT22;57357;49.480;11.058;2022-07-23T05:15:37;20.70;99.90
15292;DHT22;57357;49.480;11.058;2022-07-23T05:18:06;20.80;99.90
15292;DHT22;57357;49.480;11.058;2022-07-23T05:20:33;21.00;99.90
15292;DHT22;57357;49.480;11.058;2022-07-23T05:23:02;21.10;99.90
15292;DHT22;57357;49.480;11.058;2022-07-23T05:25:29;21.30;99.90
15292;DHT22;57357;49.480;11.058;2022-07-23T05:27:57;21.40;99.90
15292;DHT22;57357;49.480;11.058;2022-07-23T05:30:25;21.50;99.90
15292;DHT22;57357;49.480;11.058;2022-07-23T05:32:53;21.60;99.90
15292;DHT22;57357;49.480;11.058;2022-07-23T05:35:22;21.70;99.90
15292;DHT22;57357;49.480;11.058;2022-07-23T05:37:50;21.90;99.90
15292;DHT22;57357;49.480;11.058;2022-07-23T05:40:19;21.90;99.90
15292;DHT22;57357;49.480;11.058;2022-07-23T05:42:47;22.10;99.90
15292;DHT22;57357;49.480;11.058;2022-07-23T05:45:14;22.20;99.90
15292;DHT22;57357;49.480;11.058;2022-07-23T05:47:42;22.30;99.90
15292;DHT22;57357;49.480;11.058;2022-07-23T05:50:10;22.50;99.90
15292;DHT22;57357;49.480;11.058;2022-07-23T05:52:41;22.60;99.90
15292;DHT22;57357;49.480;11.058;2022-07-23T05:55:09;22.80;99.90
15292;DHT22;57357;49.480;11.058;2022-07-23T05:57:39;23.00;99.90
15292;DHT22;57357;49.480;11.058;2022-07-23T06:00:07;23.10;99.90
15292;DHT22;57357;49.480;11.058;2022-07-23T06:02:36;23.00;99.90
15292;DHT22;57357;49.480;11.058;2022-07-23T06:05:05;23.00;99.90
15292;DHT22;57357;49.480;11.058;2022-07-23T06:07:34;22.90;99.90
15292;DHT22;57357;49.480;11.058;2022-07-23T06:10:04;22.90;99.90
15292;DHT22;57357;49.480;11.058;2022-07-23T06:12:32;22.80;99.90
15292;DHT22;57357;49.480;11.058;2022-07-23T06:15:00;22.80;99.90
15292;DHT22;57357;49.480;11.058;2022-07-23T06:17:28;22.70;99.90
15292;DHT22;57357;49.480;11.058;2022-07-23T06:19:56;23.00;99.90
15292;DHT22;57357;49.480;11.058;2022-07-23T06:22:23;23.10;99.90
15292;DHT22;57357;49.480;11.058;2022-07-23T06:24:51;23.30;99.90
15292;DHT22;57357;49.480;11.058;2022-07-23T06:27:20;23.40;99.90
15292;DHT22;57357;49.480;11.058;2022-07-23T06:29:52;23.50;99.90
15292;DHT22;57357;49.480;11.058;2022-07-23T06:32:19;23.60;99.90
15292;DHT22;57357;49.480;11.058;2022-07-23T06:34:47;23.80;99.90
15292;DHT22;57357;49.480;11.058;2022-07-23T06:37:15;23.90;99.90
15292;DHT22;57357;49.480;11.058;2022-07-23T06:39:43;24.00;99.90
15292;DHT22;57357;49.480;11.058;2022-07-23T06:42:11;24.10;99.90
15292;DHT22;57357;49.480;11.058;2022-07-23T06:44:40;24.10;99.90
15292;DHT22;57357;49.480;11.058;2022-07-23T06:47:08;24.30;99.90
15292;DHT22;57357;49.480;11.058;2022-07-23T06:49:35;24.50;99.90
15292;DHT22;57357;49.480;11.058;2022-07-23T06:52:03;24.60;99.90
15292;DHT22;57357;49.480;11.058;2022-07-23T06:54:31;24.70;99.90
15292;DHT22;57357;49.480;11.058;2022-07-23T06:56:59;25.00;99.90
15292;DHT22;57357;49.480;11.058;2022-07-23T06:59:27;25.10;99.90
15292;DHT22;57357;49.480;11.058;2022-07-23T07:01:56;25.20;99.90
15292;DHT22;57357;49.480;11.058;2022-07-23T07:04:25;25.10;99.90
15292;DHT22;57357;49.480;11.058;2022-07-23T07:06:52;25.20;99.90
15292;DHT22;57357;49.480;11.058;2022-07-23T07:09:20;25.10;99.90
15292;DHT22;57357;49.480;11.058;2022-07-23T07:11:48;25.10;99.90
15292;DHT22;57357;49.480;11.058;2022-07-23T07:14:16;25.20;99.90
15292;DHT22;57357;49.480;11.058;2022-07-23T07:16:44;25.30;99.90
15292;DHT22;57357;49.480;11.058;2022-07-23T07:19:13;25.20;99.90
15292;DHT22;57357;49.480;11.058;2022-07-23T07:23:19;25.30;99.90
15292;DHT22;57357;49.480;11.058;2022-07-23T07:25:46;25.20;99.90
15292;DHT22;57357;49.480;11.058;2022-07-23T07:28:14;25.20;99.90
15292;DHT22;57357;49.480;11.058;2022-07-23T07:30:42;25.20;99.90
15292;DHT22;57357;49.480;11.058;2022-07-23T07:33:10;25.20;99.90
15292;DHT22;57357;49.480;11.058;2022-07-23T07:35:38;25.20;99.90
15292;DHT22;57357;49.480;11.058;2022-07-23T07:38:05;25.30;99.90
15292;DHT22;57357;49.480;11.058;2022-07-23T07:40:34;25.40;99.90
15292;DHT22;57357;49.480;11.058;2022-07-23T07:43:02;25.50;99.90
15292;DHT22;57357;49.480;11.058;2022-07-23T07:45:30;25.40;99.90
15292;DHT22;57357;49.480;11.058;2022-07-23T07:47:58;25.30;99.90
15292;DHT22;57357;49.480;11.058;2022-07-23T07:50:26;25.30;99.90
15292;DHT22;57357;49.480;11.058;2022-07-23T07:52:54;25.40;99.90
15292;DHT22;57357;49.480;11.058;2022-07-23T07:55:22;25.30;99.90
15292;DHT22;57357;49.480;11.058;2022-07-23T07:57:51;24.50;99.90
15292;DHT22;57357;49.480;11.058;2022-07-23T08:00:18;23.20;99.90
15292;DHT22;57357;49.480;11.058;2022-07-23T08:02:47;22.50;99.90
15292;DHT22;57357;49.480;11.058;2022-07-23T08:05:18;21.90;99.90
15292;DHT22;57357;49.480;11.058;2022-07-23T08:07:52;21.70;99.90
15292;DHT22;57357;49.480;11.058;2022-07-23T08:10:20;21.70;99.90
15292;DHT22;57357;49.480;11.058;2022-07-23T08:12:48;21.60;99.90
15292;DHT22;57357;49.480;11.058;2022-07-23T08:15:18;21.70;99.90
15292;DHT22;57357;49.480;11.058;2022-07-23T08:17:46;21.80;99.90
15292;DHT22;57357;49.480;11.058;2022-07-23T08:20:15;22.00;99.90
15292;DHT22;57357;49.480;11.058;2022-07-23T08:22:44;22.20;99.90
15292;DHT22;57357;49.480;11.058;2022-07-23T08:25:12;22.30;99.90
15292;DHT22;57357;49.480;11.058;2022-07-23T08:27:40;22.40;99.90
15292;DHT22;57357;49.480;11.058;2022-07-23T08:30:08;22.40;99.90
15292;DHT22;57357;49.480;11.058;2022-07-23T08:32:50;22.40;99.90
15292;DHT22;57357;49.480;11.058;2022-07-23T08:35:21;22.30;99.90
15292;DHT22;57357;49.480;11.058;2022-07-23T08:37:49;22.20;99.90
15292;DHT22;57357;49.480;11.058;2022-07-23T08:40:17;22.10;99.90
15292;DHT22;57357;49.480;11.058;2022-07-23T08:42:45;22.00;99.90
15292;DHT22;57357;49.480;11.058;2022-07-23T08:45:15;21.90;99.90
15292;DHT22;57357;49.480;11.058;2022-07-23T08:47:43;21.80;99.90
15292;DHT22;57357;49.480;11.058;2022-07-23T08:50:17;21.70;99.90
15292;DHT22;57357;49.480;11.058;2022-07-23T08:52:45;21.70;99.90
15292;DHT22;57357;49.480;11.058;2022-07-23T08:55:12;21.50;99.90
15292;DHT22;57357;49.480;11.058;2022-07-23T08:57:40;21.40;99.90
15292;DHT22;57357;49.480;11.058;2022-07-23T09:00:08;21.30;99.90
15292;DHT22;57357;49.480;11.058;2022-07-23T09:02:38;21.10;99.90
15292;DHT22;57357;49.480;11.058;2022-07-23T09:05:06;21.00;99.90
15292;DHT22;57357;49.480;11.058;2022-07-23T09:07:35;20.90;99.90
15292;DHT22;57357;49.480;11.058;2022-07-23T09:10:07;20.90;99.90
15292;DHT22;57357;49.480;11.058;2022-07-23T09:12:35;20.80;99.90
15292;DHT22;57357;49.480;11.058;2022-07-23T09:15:03;20.70;99.90
15292;DHT22;57357;49.480;11.058;2022-07-23T09:17:36;20.50;99.90
15292;DHT22;57357;49.480;11.058;2022-07-23T09:20:07;20.40;99.90
15292;DHT22;57357;49.480;11.058;2022-07-23T09:22:37;20.20;99.90
15292;DHT22;57357;49.480;11.058;2022-07-23T09:25:06;20.10;99.90
15292;DHT22;57357;49.480;11.058;2022-07-23T09:27:47;20.10;99.90
15292;DHT22;57357;49.480;11.058;2022-07-23T09:30:20;20.10;99.90
15292;DHT22;57357;49.480;11.058;2022-07-23T09:33:03;20.10;99.90
15292;DHT22;57357;49.480;11.058;2022-07-23T09:35:42;20.10;99.90
15292;DHT22;57357;49.480;11.058;2022-07-23T09:38:12;20.10;99.90
15292;DHT22;57357;49.480;11.058;2022-07-23T09:40:40;20.00;99.90
15292;DHT22;57357;49.480;11.058;2022-07-23T09:43:08;19.80;99.90
15292;DHT22;57357;49.480;11.058;2022-07-23T09:45:35;19.70;99.90
15292;DHT22;57357;49.480;11.058;2022-07-23T09:48:12;19.50;99.90
15292;DHT22;57357;49.480;11.058;2022-07-23T09:50:40;19.50;99.90
15292;DHT22;57357;49.480;11.058;2022-07-23T09:53:08;19.30;99.90
15292;DHT22;57357;49.480;11.058;2022-07-23T09:55:38;19.30;99.90
15292;DHT22;57357;49.480;11.058;2022-07-23T09:58:05;19.10;99.90
15292;DHT22;57357;49.480;11.058;2022-07-23T10:00:35;19.00;99.90
15292;DHT22;57357;49.480;11.058;2022-07-23T10:03:03;19.30;99.90
15292;DHT22;57357;49.480;11.058;2022-07-23T10:08:59;18.90;99.90
15292;DHT22;57357;49.480;11.058;2022-07-23T10:11:29;18.60;99.90
15292;DHT22;57357;49.480;11.058;2022-07-23T10:13:58;18.60;99.90
15292;DHT22;57357;49.480;11.058;2022-07-23T10:16:26;18.60;99.90
15292;DHT22;57357;49.480;11.058;2022-07-23T10:18:54;18.60;99.90
15292;DHT22;57357;49.480;11.058;2022-07-23T10:21:24;18.60;99.90
15292;DHT22;57357;49.480;11.058;2022-07-23T10:23:58;18.60;99.90
15292;DHT22;57357;49.480;11.058;2022-07-23T10:26:32;18.70;99.90
15292;DHT22;57357;49.480;11.058;2022-07-23T10:29:07;18.70;99.90
15292;DHT22;57357;49.480;11.058;2022-07-23T10:31:40;18.80;99.90
15292;DHT22;57357;49.480;11.058;2022-07-23T10:34:31;18.80;99.90
15292;DHT22;57357;49.480;11.058;2022-07-23T10:37:05;18.90;99.90
15292;DHT22;57357;49.480;11.058;2022-07-23T10:39:34;19.00;99.90
15292;DHT22;57357;49.480;11.058;2022-07-23T10:42:11;19.20;99.90
15292;DHT22;57357;49.480;11.058;2022-07-23T10:44:41;19.40;99.90
15292;DHT22;57357;49.480;11.058;2022-07-23T10:47:09;19.40;99.90
15292;DHT22;57357;49.480;11.058;2022-07-23T10:50:02;19.30;99.90
15292;DHT22;57357;49.480;11.058;2022-07-23T10:52:48;19.20;99.90
15292;DHT22;57357;49.480;11.058;2022-07-23T10:55:39;19.30;99.90
15292;DHT22;57357;49.480;11.058;2022-07-23T10:58:08;19.20;99.90
15292;DHT22;57357;49.480;11.058;2022-07-23T11:00:36;19.20;99.90
15292;DHT22;57357;49.480;11.058;2022-07-23T11:03:05;19.20;99.90
15292;DHT22;57357;49.480;11.058;2022-07-23T11:05:52;19.10;99.90
15292;DHT22;57357;49.480;11.058;2022-07-23T11:08:20;19.20;99.90
15292;DHT22;57357;49.480;11.058;2022-07-23T11:10:49;19.20;99.90
15292;DHT22;57357;49.480;11.058;2022-07-23T11:13:38;19.30;99.90
15292;DHT22;57357;49.480;11.058;2022-07-23T11:16:17;19.40;99.90
15292;DHT22;57357;49.480;11.058;2022-07-23T11:24:15;19.70;99.90
15292;DHT22;57357;49.480;11.058;2022-07-23T11:26:44;19.80;99.90
15292;DHT22;57357;49.480;11.058;2022-07-23T11:31:59;19.90;99.90
15292;DHT22;57357;49.480;11.058;2022-07-23T11:34:28;20.00;99.90
15292;DHT22;57357;49.480;11.058;2022-07-23T11:36:57;20.10;99.90
15292;DHT22;57357;49.480;11.058;2022-07-23T11:39:26;20.20;99.90
15292;DHT22;57357;49.480;11.058;2022-07-23T11:41:54;20.20;99.90
15292;DHT22;57357;49.480;11.058;2022-07-23T11:44:25;20.20;99.90
15292;DHT22;57357;49.480;11.058;2022-07-23T11:46:56;20.30;99.90
15292;DHT22;57357;49.480;11.058;2022-07-23T11:49:26;20.50;99.90
15292;DHT22;57357;49.480;11.058;2022-07-23T11:52:03;20.80;99.90
15292;DHT22;57357;49.480;11.058;2022-07-23T11:54:32;21.00;99.90
15292;DHT22;57357;49.480;11.058;2022-07-23T11:57:05;21.30;99.90
15292;DHT22;57357;49.480;11.058;2022-07-23T11:59:33;21.80;99.90
15292;DHT22;57357;49.480;11.058;2022-07-23T12:02:01;22.60;99.90
15292;DHT22;57357;49.480;11.058;2022-07-23T12:04:38;23.10;99.90
15292;DHT22;57357;49.480;11.058;2022-07-23T12:09:48;23.30;99.90
15292;DHT22;57357;49.480;11.058;2022-07-23T12:12:16;23.50;99.90
15292;DHT22;57357;49.480;11.058;2022-07-23T12:14:48;23.60;99.90
15292;DHT22;57357;49.480;11.058;2022-07-23T12:17:15;24.00;99.90
15292;DHT22;57357;49.480;11.058;2022-07-23T12:19:44;24.80;99.90
15292;DHT22;57357;49.480;11.058;2022-07-23T12:22:13;25.70;99.90
15292;DHT22;57357;49.480;11.058;2022-07-23T12:24:54;25.90;99.90
15292;DHT22;57357;49.480;11.058;2022-07-23T12:27:23;26.70;99.90
15292;DHT22;57357;49.480;11.058;2022-07-23T12:29:50;27.20;99.90
15292;DHT22;57357;49.480;11.058;2022-07-23T12:32:22;28.40;99.90
15292;DHT22;57357;49.480;11.058;2022-07-23T12:35:01;28.80;99.90
15292;DHT22;57357;49.480;11.058;2022-07-23T12:37:31;30.10;99.90
15292;DHT22;57357;49.480;11.058;2022-07-23T12:45:10;31.60;99.90
15292;DHT22;57357;49.480;11.058;2022-07-23T12:47:54;30.90;99.90
15292;DHT22;57357;49.480;11.058;2022-07-23T12:50:43;30.50;99.90
15292;DHT22;57357;49.480;11.058;2022-07-23T12:53:13;31.00;99.90
15292;DHT22;57357;49.480;11.058;2022-07-23T12:55:45;30.20;99.90
15292;DHT22;57357;49.480;11.058;2022-07-23T12:58:40;30.30;99.90
15292;DHT22;57357;49.480;11.058;2022-07-23T13:01:09;30.40;99.90
15292;DHT22;57357;49.480;11.058;2022-07-23T13:03:38;29.70;99.90
15292;DHT22;57357;49.480;11.058;2022-07-23T13:06:08;30.20;99.90
15292;DHT22;57357;49.480;11.058;2022-07-23T13:08:37;30.70;99.90
15292;DHT22;57357;49.480;11.058;2022-07-23T13:11:06;31.20;99.90
15292;DHT22;57357;49.480;11.058;2022-07-23T13:13:34;31.50;99.90
15292;DHT22;57357;49.480;11.058;2022-07-23T13:16:02;31.40;99.90
15292;DHT22;57357;49.480;11.058;2022-07-23T13:18:34;32.00;99.90
15292;DHT22;57357;49.480;11.058;2022-07-23T13:21:02;31.30;99.90
15292;DHT22;57357;49.480;11.058;2022-07-23T13:23:31;31.20;99.90
15292;DHT22;57357;49.480;11.058;2022-07-23T13:25:59;31.40;99.90
15292;DHT22;57357;49.480;11.058;2022-07-23T13:28:27;31.10;99.90
15292;DHT22;57357;49.480;11.058;2022-07-23T13:30:55;30.70;99.90
15292;DHT22;57357;49.480;11.058;2022-07-23T13:33:23;30.00;99.90
15292;DHT22;57357;49.480;11.058;2022-07-23T13:35:51;29.60;99.90
15292;DHT22;57357;49.480;11.058;2022-07-23T13:41:32;29.70;99.90
15292;DHT22;57357;49.480;11.058;2022-07-23T13:44:00;29.60;99.90
15292;DHT22;57357;49.480;11.058;2022-07-23T13:46:28;29.40;99.90
15292;DHT22;57357;49.480;11.058;2022-07-23T13:49:23;29.50;99.90
15292;DHT22;57357;49.480;11.058;2022-07-23T13:51:51;28.60;99.90
15292;DHT22;57357;49.480;11.058;2022-07-23T13:54:19;28.90;99.90
15292;DHT22;57357;49.480;11.058;2022-07-23T13:59:59;29.50;99.90
15292;DHT22;57357;49.480;11.058;2022-07-23T14:02:26;28.70;99.90
15292;DHT22;57357;49.480;11.058;2022-07-23T14:04:54;29.10;99.90
15292;DHT22;57357;49.480;11.058;2022-07-23T14:07:23;28.70;99.90
15292;DHT22;57357;49.480;11.058;2022-07-23T14:09:51;29.00;99.90
15292;DHT22;57357;49.480;11.058;2022-07-23T14:12:47;28.90;99.90
15292;DHT22;57357;49.480;11.058;2022-07-23T14:17:58;29.50;99.90
15292;DHT22;57357;49.480;11.058;2022-07-23T14:20:26;30.00;99.90
15292;DHT22;57357;49.480;11.058;2022-07-23T14:23:22;29.80;99.90
15292;DHT22;57357;49.480;11.058;2022-07-23T14:25:50;29.50;99.90
15292;DHT22;57357;49.480;11.058;2022-07-23T14:28:17;29.20;99.90
15292;DHT22;57357;49.480;11.058;2022-07-23T14:30:46;29.40;99.90
15292;DHT22;57357;49.480;11.058;2022-07-23T14:36:25;28.90;99.90
15292;DHT22;57357;49.480;11.058;2022-07-23T14:38:53;28.90;99.90
15292;DHT22;57357;49.480;11.058;2022-07-23T14:41:21;28.60;99.90
15292;DHT22;57357;49.480;11.058;2022-07-23T14:43:52;28.30;99.90
15292;DHT22;57357;49.480;11.058;2022-07-23T14:46:20;28.40;99.90
15292;DHT22;57357;49.480;11.058;2022-07-23T14:49:16;28.80;99.90
15292;DHT22;57357;49.480;11.058;2022-07-23T14:54:28;28.90;99.90
15292;DHT22;57357;49.480;11.058;2022-07-23T14:56:56;28.90;99.90
15292;DHT22;57357;49.480;11.058;2022-07-23T14:59:51;28.90;99.90
15292;DHT22;57357;49.480;11.058;2022-07-23T15:02:20;29.10;99.90
15292;DHT22;57357;49.480;11.058;2022-07-23T15:04:48;29.60;99.90
15292;DHT22;57357;49.480;11.058;2022-07-23T15:07:16;29.90;99.90
15292;DHT22;57357;49.480;11.058;2022-07-23T15:12:55;29.30;99.90
15292;DHT22;57357;49.480;11.058;2022-07-23T15:15:23;29.20;99.90
15292;DHT22;57357;49.480;11.058;2022-07-23T15:17:51;29.10;99.90
15292;DHT22;57357;49.480;11.058;2022-07-23T15:20:19;28.90;99.90
15292;DHT22;57357;49.480;11.058;2022-07-23T15:23:01;29.20;99.90
15292;DHT22;57357;49.480;11.058;2022-07-23T15:25:57;29.30;99.90
15292;DHT22;57357;49.480;11.058;2022-07-23T15:31:09;29.60;99.90
15292;DHT22;57357;49.480;11.058;2022-07-23T15:33:37;29.60;99.60
15292;DHT22;57357;49.480;11.058;2022-07-23T15:36:33;29.60;98.60
15292;DHT22;57357;49.480;11.058;2022-07-23T15:39:00;29.60;96.50
15292;DHT22;57357;49.480;11.058;2022-07-23T15:41:29;29.40;97.30
15292;DHT22;57357;49.480;11.058;2022-07-23T15:43:57;29.50;98.50
15292;DHT22;57357;49.480;11.058;2022-07-23T15:49:36;29.70;98.20
15292;DHT22;57357;49.480;11.058;2022-07-23T15:52:04;29.60;96.30
15292;DHT22;57357;49.480;11.058;2022-07-23T15:54:32;29.60;95.90
15292;DHT22;57357;49.480;11.058;2022-07-23T15:57:00;29.40;96.80
15292;DHT22;57357;49.480;11.058;2022-07-23T15:59:32;29.30;97.30
15292;DHT22;57357;49.480;11.058;2022-07-23T16:02:28;29.20;97.20
15292;DHT22;57357;49.480;11.058;2022-07-23T16:07:40;28.90;98.80
15292;DHT22;57357;49.480;11.058;2022-07-23T16:10:07;28.70;99.40
15292;DHT22;57357;49.480;11.058;2022-07-23T16:13:03;28.50;99.90
15292;DHT22;57357;49.480;11.058;2022-07-23T16:15:31;28.30;99.90
15292;DHT22;57357;49.480;11.058;2022-07-23T16:17:58;28.30;99.90
15292;DHT22;57357;49.480;11.058;2022-07-23T16:20:27;28.30;99.90
15292;DHT22;57357;49.480;11.058;2022-07-23T16:26:06;28.30;99.90
15292;DHT22;57357;49.480;11.058;2022-07-23T16:28:34;28.50;99.90
15292;DHT22;57357;49.480;11.058;2022-07-23T16:31:02;28.40;99.90
15292;DHT22;57357;49.480;11.058;2022-07-23T16:33:44;28.30;99.90
15292;DHT22;57357;49.480;11.058;2022-07-23T16:36:13;28.10;99.90
15292;DHT22;57357;49.480;11.058;2022-07-23T16:38:55;27.90;99.90
15292;DHT22;57357;49.480;11.058;2022-07-23T16:44:27;27.80;99.90
15292;DHT22;57357;49.480;11.058;2022-07-23T16:46:55;27.80;99.90
15292;DHT22;57357;49.480;11.058;2022-07-23T16:49:37;27.80;99.90
15292;DHT22;57357;49.480;11.058;2022-07-23T16:52:05;27.70;99.90
15292;DHT22;57357;49.480;11.058;2022-07-23T16:54:32;27.60;99.90
15292;DHT22;57357;49.480;11.058;2022-07-23T16:57:14;27.60;99.90
15292;DHT22;57357;49.480;11.058;2022-07-23T17:02:40;27.60;99.90
15292;DHT22;57357;49.480;11.058;2022-07-23T17:05:08;27.50;99.90
15292;DHT22;57357;49.480;11.058;2022-07-23T17:07:50;27.50;99.90
15292;DHT22;57357;49.480;11.058;2022-07-23T17:10:20;27.50;99.90
15292;DHT22;57357;49.480;11.058;2022-07-23T17:12:48;27.60;99.90
15292;DHT22;57357;49.480;11.058;2022-07-23T17:15:31;27.40;99.90
15292;DHT22;57357;49.480;11.058;2022-07-23T17:20:56;27.40;99.90